sensor_id;sensor_type;location;lat;lon;timestamp;pressure;altitude;pressure_sealevel;temperature;humidity
61026;BME280;46911;32.650;-16.902;2024-01-16T00:01:19;100951.59;;;20.30;100.00
61026;BME280;46911;32.650;-16.902;2024-01-16T00:03:22;100962.09;;;20.33;100.00
61026;BME280;46911;32.650;-16.902;2024-01-16T00:05:29;100957.06;;;20.47;100.00
61026;BME280;46911;32.650;-16.902;2024-01-16T00:07:30;100956.75;;;20.50;100.00
61026;BME280;46911;32.650;-16.902;2024-01-16T00:09:36;100942.81;;;20.36;100.00
61026;BME280;46911;32.650;-16.902;2024-01-16T00:11:42;100958.44;;;20.51;100.00
61026;BME280;46911;32.650;-16.902;2024-01-16T00:13:46;100956.41;;;20.53;100.00
61026;BME280;46911;32.650;-16.902;2024-01-16T00:15:48;100928.28;;;20.46;100.00
61026;BME280;46911;32.650;-16.902;2024-01-16T00:17:51;100931.69;;;20.56;100.00
61026;BME280;46911;32.650;-16.902;2024-01-16T00:19:52;100915.41;;;20.48;100.00
61026;BME280;46911;32.650;-16.902;2024-01-16T00:21:55;100931.03;;;20.54;100.00
61026;BME280;46911;32.650;-16.902;2024-01-16T00:23:56;100926.59;;;20.45;100.00
61026;BME280;46911;32.650;-16.902;2024-01-16T00:25:57;100914.44;;;20.57;100.00
61026;BME280;46911;32.650;-16.902;2024-01-16T00:27:58;100895.44;;;20.49;100.00
61026;BME280;46911;32.650;-16.902;2024-01-16T00:29:58;100894.94;;;20.53;100.00
61026;BME280;46911;32.650;-16.902;2024-01-16T00:31:59;100904.59;;;20.56;100.00
61026;BME280;46911;32.650;-16.902;2024-01-16T00:34:03;100871.06;;;20.49;100.00
61026;BME280;46911;32.650;-16.902;2024-01-16T00:36:04;100870.69;;;20.44;100.00
61026;BME280;46911;32.650;-16.902;2024-01-16T00:38:07;100895.78;;;20.46;100.00
61026;BME280;46911;32.650;-16.902;2024-01-16T00:40:08;100885.22;;;20.34;100.00
61026;BME280;46911;32.650;-16.902;2024-01-16T00:42:11;100873.00;;;20.22;100.00
61026;BME280;46911;32.650;-16.902;2024-01-16T00:44:12;100871.84;;;20.24;100.00
61026;BME280;46911;32.650;-16.902;2024-01-16T00:46:13;100851.34;;;20.22;100.00
61026;BME280;46911;32.650;-16.902;2024-01-16T00:48:14;100848.63;;;20.22;100.00
61026;BME280;46911;32.650;-16.902;2024-01-16T00:50:15;100854.59;;;20.34;100.00
61026;BME280;46911;32.650;-16.902;2024-01-16T00:52:16;100857.31;;;20.34;100.00
61026;BME280;46911;32.650;-16.902;2024-01-16T00:54:22;100858.84;;;20.36;100.00
61026;BME280;46911;32.650;-16.902;2024-01-16T00:56:25;100846.09;;;20.29;100.00
61026;BME280;46911;32.650;-16.902;2024-01-16T00:58:28;100853.56;;;20.35;100.00
61026;BME280;46911;32.650;-16.902;2024-01-16T01:00:29;100841.53;;;20.37;100.00
61026;BME280;46911;32.650;-16.902;2024-01-16T01:02:31;100834.66;;;20.51;100.00
61026;BME280;46911;32.650;-16.902;2024-01-16T01:04:33;100842.44;;;20.54;100.00
61026;BME280;46911;32.650;-16.902;2024-01-16T01:06:35;100833.97;;;20.57;100.00
61026;BME280;46911;32.650;-16.902;2024-01-16T01:08:39;100804.50;;;20.46;100.00
61026;BME280;46911;32.650;-16.902;2024-01-16T01:10:42;100834.13;;;20.56;100.00
61026;BME280;46911;32.650;-16.902;2024-01-16T01:12:46;100814.50;;;20.62;100.00
61026;BME280;46911;32.650;-16.902;2024-01-16T01:14:47;100809.44;;;20.59;100.00
61026;BME280;46911;32.650;-16.902;2024-01-16T01:16:48;100832.16;;;20.74;100.00
61026;BME280;46911;32.650;-16.902;2024-01-16T01:18:49;100805.19;;;20.56;100.00
61026;BME280;46911;32.650;-16.902;2024-01-16T01:20:54;100810.09;;;20.53;100.00
61026;BME280;46911;32.650;-16.902;2024-01-16T01:22:56;100807.56;;;20.51;100.00
61026;BME280;46911;32.650;-16.902;2024-01-16T01:25:01;100841.09;;;20.67;100.00
61026;BME280;46911;32.650;-16.902;2024-01-16T01:27:02;100826.88;;;20.56;100.00
61026;BME280;46911;32.650;-16.902;2024-01-16T01:29:11;100834.34;;;20.71;100.00
61026;BME280;46911;32.650;-16.902;2024-01-16T01:31:14;100811.44;;;20.57;100.00
61026;BME280;46911;32.650;-16.902;2024-01-16T01:33:15;100826.69;;;20.66;100.00
61026;BME280;46911;32.650;-16.902;2024-01-16T01:35:17;100824.66;;;20.68;100.00
61026;BME280;46911;32.650;-16.902;2024-01-16T01:37:22;100809.09;;;20.62;100.00
61026;BME280;46911;32.650;-16.902;2024-01-16T01:39:23;100805.38;;;20.63;100.00
61026;BME280;46911;32.650;-16.902;2024-01-16T01:41:26;100817.41;;;20.69;100.00
61026;BME280;46911;32.650;-16.902;2024-01-16T01:43:27;100810.25;;;20.68;100.00
61026;BME280;46911;32.650;-16.902;2024-01-16T01:45:28;100787.75;;;20.59;100.00
61026;BME280;46911;32.650;-16.902;2024-01-16T01:47:35;100766.03;;;20.43;100.00
61026;BME280;46911;32.650;-16.902;2024-01-16T01:49:42;100763.66;;;20.39;100.00
61026;BME280;46911;32.650;-16.902;2024-01-16T01:51:46;100771.13;;;20.54;100.00
61026;BME280;46911;32.650;-16.902;2024-01-16T01:53:50;100757.91;;;20.51;100.00
61026;BME280;46911;32.650;-16.902;2024-01-16T01:55:55;100754.53;;;20.49;100.00
61026;BME280;46911;32.650;-16.902;2024-01-16T01:57:58;100744.34;;;20.43;100.00
61026;BME280;46911;32.650;-16.902;2024-01-16T02:00:01;100726.41;;;20.41;100.00
61026;BME280;46911;32.650;-16.902;2024-01-16T02:02:13;100706.25;;;20.19;100.00
61026;BME280;46911;32.650;-16.902;2024-01-16T02:04:14;100741.47;;;20.44;100.00
61026;BME280;46911;32.650;-16.902;2024-01-16T02:06:18;100751.47;;;20.44;100.00
61026;BME280;46911;32.650;-16.902;2024-01-16T02:08:24;100724.03;;;20.30;100.00
61026;BME280;46911;32.650;-16.902;2024-01-16T02:10:25;100741.13;;;20.39;100.00
61026;BME280;46911;32.650;-16.902;2024-01-16T02:12:28;100749.47;;;20.46;100.00
61026;BME280;46911;32.650;-16.902;2024-01-16T02:14:32;100721.16;;;20.32;100.00
61026;BME280;46911;32.650;-16.902;2024-01-16T02:16:41;100734.53;;;20.41;100.00
61026;BME280;46911;32.650;-16.902;2024-01-16T02:18:42;100715.56;;;20.33;100.00
61026;BME280;46911;32.650;-16.902;2024-01-16T02:20:47;100726.94;;;20.37;100.00
61026;BME280;46911;32.650;-16.902;2024-01-16T02:22:52;100719.50;;;20.47;100.00
61026;BME280;46911;32.650;-16.902;2024-01-16T02:24:57;100686.28;;;20.29;100.00
61026;BME280;46911;32.650;-16.902;2024-01-16T02:26:58;100695.94;;;20.31;100.00
61026;BME280;46911;32.650;-16.902;2024-01-16T02:29:03;100688.31;;;20.35;100.00
61026;BME280;46911;32.650;-16.902;2024-01-16T02:31:07;100676.28;;;20.37;100.00
61026;BME280;46911;32.650;-16.902;2024-01-16T02:33:11;100670.22;;;20.27;100.00
61026;BME280;46911;32.650;-16.902;2024-01-16T02:35:15;100683.59;;;20.29;100.00
61026;BME280;46911;32.650;-16.902;2024-01-16T02:37:20;100688.84;;;20.22;100.00
61026;BME280;46911;32.650;-16.902;2024-01-16T02:39:23;100678.66;;;20.24;100.00
61026;BME280;46911;32.650;-16.902;2024-01-16T02:41:25;100667.34;;;20.29;100.00
61026;BME280;46911;32.650;-16.902;2024-01-16T02:43:26;100668.16;;;20.21;100.00
61026;BME280;46911;32.650;-16.902;2024-01-16T02:45:27;100663.41;;;20.15;100.00
61026;BME280;46911;32.650;-16.902;2024-01-16T02:47:31;100677.66;;;20.25;100.00
61026;BME280;46911;32.650;-16.902;2024-01-16T02:49:35;100652.28;;;20.10;100.00
61026;BME280;46911;32.650;-16.902;2024-01-16T02:51:37;100684.94;;;20.16;100.00
61026;BME280;46911;32.650;-16.902;2024-01-16T02:53:38;100690.19;;;20.18;100.00
61026;BME280;46911;32.650;-16.902;2024-01-16T02:55:39;100663.41;;;20.06;100.00
61026;BME280;46911;32.650;-16.902;2024-01-16T02:57:40;100676.97;;;20.15;100.00
61026;BME280;46911;32.650;-16.902;2024-01-16T02:59:46;100689.66;;;20.14;100.00
61026;BME280;46911;32.650;-16.902;2024-01-16T03:01:47;100671.06;;;20.11;100.00
61026;BME280;46911;32.650;-16.902;2024-01-16T03:03:48;100668.53;;;20.10;100.00
61026;BME280;46911;32.650;-16.902;2024-01-16T03:05:49;100672.91;;;20.11;100.00
61026;BME280;46911;32.650;-16.902;2024-01-16T03:07:50;100680.84;;;20.12;100.00
61026;BME280;46911;32.650;-16.902;2024-01-16T03:09:51;100682.38;;;20.06;100.00
61026;BME280;46911;32.650;-16.902;2024-01-16T03:11:52;100701.50;;;20.13;100.00
61026;BME280;46911;32.650;-16.902;2024-01-16T03:13:53;100677.31;;;20.03;100.00
61026;BME280;46911;32.650;-16.902;2024-01-16T03:15:56;100699.31;;;20.09;100.00
61026;BME280;46911;32.650;-16.902;2024-01-16T03:17:57;100689.84;;;20.13;100.00
61026;BME280;46911;32.650;-16.902;2024-01-16T03:19:58;100679.66;;;19.98;100.00
61026;BME280;46911;32.650;-16.902;2024-01-16T03:21:59;100710.50;;;20.14;100.00
61026;BME280;46911;32.650;-16.902;2024-01-16T03:24:00;100699.63;;;20.05;100.00
61026;BME280;46911;32.650;-16.902;2024-01-16T03:26:03;100681.00;;;19.94;100.00
61026;BME280;46911;32.650;-16.902;2024-01-16T03:28:05;100691.00;;;20.02;100.00
61026;BME280;46911;32.650;-16.902;2024-01-16T03:30:11;100690.34;;;20.16;100.00
61026;BME280;46911;32.650;-16.902;2024-01-16T03:32:12;100675.94;;;20.07;100.00
61026;BME280;46911;32.650;-16.902;2024-01-16T03:34:13;100653.94;;;19.94;100.00
61026;BME280;46911;32.650;-16.902;2024-01-16T03:36:14;100674.94;;;20.00;100.00
61026;BME280;46911;32.650;-16.902;2024-01-16T03:38:19;100661.06;;;20.12;100.00
61026;BME280;46911;32.650;-16.902;2024-01-16T03:40:20;100684.41;;;20.13;100.00
61026;BME280;46911;32.650;-16.902;2024-01-16T03:42:23;100683.72;;;20.19;100.00
61026;BME280;46911;32.650;-16.902;2024-01-16T03:44:27;100688.81;;;20.30;100.00
61026;BME280;46911;32.650;-16.902;2024-01-16T03:46:31;100690.69;;;20.30;100.00
61026;BME280;46911;32.650;-16.902;2024-01-16T03:48:32;100701.03;;;20.26;100.00
61026;BME280;46911;32.650;-16.902;2024-01-16T03:50:36;100698.31;;;20.34;100.00
61026;BME280;46911;32.650;-16.902;2024-01-16T03:52:37;100697.63;;;20.24;99.43
61026;BME280;46911;32.650;-16.902;2024-01-16T03:54:40;100706.59;;;20.33;99.56
61026;BME280;46911;32.650;-16.902;2024-01-16T03:56:43;100704.25;;;20.38;98.52
61026;BME280;46911;32.650;-16.902;2024-01-16T03:58:46;100708.31;;;20.42;97.47
61026;BME280;46911;32.650;-16.902;2024-01-16T04:00:50;100692.22;;;20.40;97.87
61026;BME280;46911;32.650;-16.902;2024-01-16T04:02:54;100684.75;;;20.34;94.85
61026;BME280;46911;32.650;-16.902;2024-01-16T04:05:00;100701.16;;;20.57;95.06
61026;BME280;46911;32.650;-16.902;2024-01-16T04:07:03;100680.88;;;20.45;96.14
61026;BME280;46911;32.650;-16.902;2024-01-16T04:09:11;100700.50;;;20.55;94.86
61026;BME280;46911;32.650;-16.902;2024-01-16T04:11:15;100690.69;;;20.54;96.14
61026;BME280;46911;32.650;-16.902;2024-01-16T04:13:21;100670.72;;;20.47;98.13
61026;BME280;46911;32.650;-16.902;2024-01-16T04:15:27;100670.53;;;20.57;98.31
61026;BME280;46911;32.650;-16.902;2024-01-16T04:17:30;100691.34;;;20.48;99.72
61026;BME280;46911;32.650;-16.902;2024-01-16T04:19:34;100693.56;;;20.45;99.66
61026;BME280;46911;32.650;-16.902;2024-01-16T04:21:39;100686.78;;;20.49;99.48
61026;BME280;46911;32.650;-16.902;2024-01-16T04:23:41;100685.44;;;20.45;100.00
61026;BME280;46911;32.650;-16.902;2024-01-16T04:25:42;100673.75;;;20.44;100.00
61026;BME280;46911;32.650;-16.902;2024-01-16T04:27:43;100651.56;;;20.49;100.00
61026;BME280;46911;32.650;-16.902;2024-01-16T04:29:47;100649.53;;;20.43;100.00
61026;BME280;46911;32.650;-16.902;2024-01-16T04:31:50;100670.56;;;20.40;100.00
61026;BME280;46911;32.650;-16.902;2024-01-16T04:33:51;100660.91;;;20.38;100.00
61026;BME280;46911;32.650;-16.902;2024-01-16T04:35:55;100665.28;;;20.39;100.00
61026;BME280;46911;32.650;-16.902;2024-01-16T04:37:56;100641.09;;;20.46;100.00
61026;BME280;46911;32.650;-16.902;2024-01-16T04:40:02;100606.88;;;20.45;100.00
61026;BME280;46911;32.650;-16.902;2024-01-16T04:42:03;100608.41;;;20.22;100.00
61026;BME280;46911;32.650;-16.902;2024-01-16T04:44:04;100659.53;;;20.26;100.00
61026;BME280;46911;32.650;-16.902;2024-01-16T04:46:05;100667.13;;;19.89;100.00
61026;BME280;46911;32.650;-16.902;2024-01-16T04:48:08;100676.59;;;19.42;100.00
61026;BME280;46911;32.650;-16.902;2024-01-16T04:50:09;100619.22;;;19.14;100.00
61026;BME280;46911;32.650;-16.902;2024-01-16T04:52:10;100654.59;;;18.94;100.00
61026;BME280;46911;32.650;-16.902;2024-01-16T04:54:12;100633.22;;;18.83;100.00
61026;BME280;46911;32.650;-16.902;2024-01-16T04:56:15;100583.03;;;18.46;100.00
61026;BME280;46911;32.650;-16.902;2024-01-16T04:58:18;100601.66;;;18.31;100.00
61026;BME280;46911;32.650;-16.902;2024-01-16T05:00:19;100620.88;;;18.28;100.00
61026;BME280;46911;32.650;-16.902;2024-01-16T05:02:20;100615.69;;;18.34;100.00
61026;BME280;46911;32.650;-16.902;2024-01-16T05:04:26;100616.47;;;18.53;100.00
61026;BME280;46911;32.650;-16.902;2024-01-16T05:06:28;100596.91;;;18.51;100.00
61026;BME280;46911;32.650;-16.902;2024-01-16T05:08:28;100607.25;;;18.64;100.00
61026;BME280;46911;32.650;-16.902;2024-01-16T05:10:33;100579.75;;;18.60;100.00
61026;BME280;46911;32.650;-16.902;2024-01-16T05:12:36;100597.38;;;18.72;100.00
61026;BME280;46911;32.650;-16.902;2024-01-16T05:14:41;100599.06;;;18.73;100.00
61026;BME280;46911;32.650;-16.902;2024-01-16T05:16:45;100578.44;;;18.72;100.00
61026;BME280;46911;32.650;-16.902;2024-01-16T05:18:51;100587.97;;;18.85;100.00
61026;BME280;46911;32.650;-16.902;2024-01-16T05:20:54;100577.22;;;18.93;100.00
61026;BME280;46911;32.650;-16.902;2024-01-16T05:22:56;100553.53;;;18.87;100.00
61026;BME280;46911;32.650;-16.902;2024-01-16T05:24:58;100555.94;;;18.98;100.00
61026;BME280;46911;32.650;-16.902;2024-01-16T05:27:00;100557.63;;;18.91;100.00
61026;BME280;46911;32.650;-16.902;2024-01-16T05:29:00;100537.88;;;18.64;100.00
61026;BME280;46911;32.650;-16.902;2024-01-16T05:31:04;100569.53;;;18.80;100.00
61026;BME280;46911;32.650;-16.902;2024-01-16T05:33:04;100575.28;;;18.51;100.00
61026;BME280;46911;32.650;-16.902;2024-01-16T05:35:11;100605.53;;;18.28;100.00
61026;BME280;46911;32.650;-16.902;2024-01-16T05:37:16;100614.63;;;17.91;100.00
61026;BME280;46911;32.650;-16.902;2024-01-16T05:39:20;100632.59;;;17.82;100.00
61026;BME280;46911;32.650;-16.902;2024-01-16T05:41:23;100616.56;;;17.63;100.00
61026;BME280;46911;32.650;-16.902;2024-01-16T05:43:29;100590.50;;;17.53;100.00
61026;BME280;46911;32.650;-16.902;2024-01-16T05:45:32;100576.31;;;17.33;100.00
61026;BME280;46911;32.650;-16.902;2024-01-16T05:47:35;100618.16;;;17.37;100.00
61026;BME280;46911;32.650;-16.902;2024-01-16T05:49:36;100612.03;;;17.35;100.00
61026;BME280;46911;32.650;-16.902;2024-01-16T05:51:42;100613.72;;;17.18;100.00
61026;BME280;46911;32.650;-16.902;2024-01-16T05:53:43;100599.09;;;16.93;100.00
61026;BME280;46911;32.650;-16.902;2024-01-16T05:55:44;100642.41;;;17.10;100.00
61026;BME280;46911;32.650;-16.902;2024-01-16T05:57:47;100663.50;;;17.24;100.00
61026;BME280;46911;32.650;-16.902;2024-01-16T05:59:51;100656.53;;;17.49;100.00
61026;BME280;46911;32.650;-16.902;2024-01-16T06:01:54;100640.69;;;17.64;100.00
61026;BME280;46911;32.650;-16.902;2024-01-16T06:03:58;100655.44;;;17.88;100.00
61026;BME280;46911;32.650;-16.902;2024-01-16T06:06:02;100642.59;;;18.00;100.00
61026;BME280;46911;32.650;-16.902;2024-01-16T06:08:05;100623.44;;;18.11;100.00
61026;BME280;46911;32.650;-16.902;2024-01-16T06:10:12;100618.81;;;18.21;100.00
61026;BME280;46911;32.650;-16.902;2024-01-16T06:12:16;100595.19;;;18.23;100.00
61026;BME280;46911;32.650;-16.902;2024-01-16T06:14:20;100599.44;;;18.26;100.00
61026;BME280;46911;32.650;-16.902;2024-01-16T06:16:22;100606.25;;;18.38;100.00
61026;BME280;46911;32.650;-16.902;2024-01-16T06:18:23;100599.56;;;18.43;100.00
61026;BME280;46911;32.650;-16.902;2024-01-16T06:20:28;100595.81;;;18.44;100.00
61026;BME280;46911;32.650;-16.902;2024-01-16T06:22:29;100574.22;;;18.44;100.00
61026;BME280;46911;32.650;-16.902;2024-01-16T06:24:34;100578.03;;;18.59;100.00
61026;BME280;46911;32.650;-16.902;2024-01-16T06:26:37;100558.59;;;18.55;100.00
61026;BME280;46911;32.650;-16.902;2024-01-16T06:28:38;100595.66;;;18.71;100.00
61026;BME280;46911;32.650;-16.902;2024-01-16T06:30:40;100574.72;;;18.65;100.00
61026;BME280;46911;32.650;-16.902;2024-01-16T06:32:41;100577.81;;;18.79;100.00
61026;BME280;46911;32.650;-16.902;2024-01-16T06:34:45;100572.59;;;18.85;100.00
61026;BME280;46911;32.650;-16.902;2024-01-16T06:36:46;100562.78;;;18.76;100.00
61026;BME280;46911;32.650;-16.902;2024-01-16T06:38:46;100581.38;;;18.87;100.00
61026;BME280;46911;32.650;-16.902;2024-01-16T06:40:47;100568.59;;;18.89;100.00
61026;BME280;46911;32.650;-16.902;2024-01-16T06:42:48;100580.09;;;19.00;100.00
61026;BME280;46911;32.650;-16.902;2024-01-16T06:44:51;100572.88;;;19.09;100.00
61026;BME280;46911;32.650;-16.902;2024-01-16T06:46:52;100574.91;;;19.06;100.00
61026;BME280;46911;32.650;-16.902;2024-01-16T06:48:58;100559.00;;;18.95;100.00
61026;BME280;46911;32.650;-16.902;2024-01-16T06:50:59;100572.88;;;19.09;100.00
61026;BME280;46911;32.650;-16.902;2024-01-16T06:53:04;100594.06;;;19.21;100.00
61026;BME280;46911;32.650;-16.902;2024-01-16T06:55:10;100601.03;;;19.32;100.00
61026;BME280;46911;32.650;-16.902;2024-01-16T06:57:14;100610.13;;;19.31;100.00
61026;BME280;46911;32.650;-16.902;2024-01-16T06:59:17;100575.47;;;19.27;100.00
61026;BME280;46911;32.650;-16.902;2024-01-16T07:01:26;100591.41;;;19.38;100.00
61026;BME280;46911;32.650;-16.902;2024-01-16T07:03:30;100591.41;;;19.38;100.00
61026;BME280;46911;32.650;-16.902;2024-01-16T07:05:31;100600.34;;;19.38;100.00
61026;BME280;46911;32.650;-16.902;2024-01-16T07:07:31;100599.84;;;19.35;100.00
61026;BME280;46911;32.650;-16.902;2024-01-16T07:09:32;100604.41;;;19.43;100.00
61026;BME280;46911;32.650;-16.902;2024-01-16T07:11:38;100626.06;;;19.43;100.00
61026;BME280;46911;32.650;-16.902;2024-01-16T07:13:43;100643.63;;;19.38;100.00
61026;BME280;46911;32.650;-16.902;2024-01-16T07:15:44;100606.44;;;19.32;100.00
61026;BME280;46911;32.650;-16.902;2024-01-16T07:17:47;100612.03;;;19.47;100.00
61026;BME280;46911;32.650;-16.902;2024-01-16T07:19:51;100594.91;;;19.30;100.00
61026;BME280;46911;32.650;-16.902;2024-01-16T07:21:54;100612.03;;;19.39;100.00
61026;BME280;46911;32.650;-16.902;2024-01-16T07:23:57;100601.50;;;19.28;100.00
61026;BME280;46911;32.650;-16.902;2024-01-16T07:26:01;100619.28;;;19.38;100.00
61026;BME280;46911;32.650;-16.902;2024-01-16T07:28:04;100589.34;;;19.32;100.00
61026;BME280;46911;32.650;-16.902;2024-01-16T07:30:06;100579.88;;;19.28;100.00
61026;BME280;46911;32.650;-16.902;2024-01-16T07:32:09;100610.84;;;19.42;100.00
61026;BME280;46911;32.650;-16.902;2024-01-16T07:34:11;100614.56;;;19.40;100.00
61026;BME280;46911;32.650;-16.902;2024-01-16T07:36:13;100624.22;;;19.43;100.00
61026;BME280;46911;32.650;-16.902;2024-01-16T07:38:16;100638.28;;;19.55;100.00
61026;BME280;46911;32.650;-16.902;2024-01-16T07:40:17;100636.94;;;19.59;100.00
61026;BME280;46911;32.650;-16.902;2024-01-16T07:42:23;100624.91;;;19.53;100.00
61026;BME280;46911;32.650;-16.902;2024-01-16T07:44:28;100613.94;;;19.55;100.00
61026;BME280;46911;32.650;-16.902;2024-01-16T07:46:32;100609.16;;;19.49;100.00
61026;BME280;46911;32.650;-16.902;2024-01-16T07:48:33;100613.22;;;19.45;100.00
61026;BME280;46911;32.650;-16.902;2024-01-16T07:50:36;100618.63;;;19.45;100.00
61026;BME280;46911;32.650;-16.902;2024-01-16T07:52:37;100615.56;;;19.39;100.00
61026;BME280;46911;32.650;-16.902;2024-01-16T07:54:40;100589.16;;;19.25;100.00
61026;BME280;46911;32.650;-16.902;2024-01-16T07:56:41;100579.34;;;19.24;100.00
61026;BME280;46911;32.650;-16.902;2024-01-16T07:58:44;100564.81;;;19.25;100.00
61026;BME280;46911;32.650;-16.902;2024-01-16T08:00:47;100554.34;;;19.22;100.00
61026;BME280;46911;32.650;-16.902;2024-01-16T08:02:50;100574.47;;;19.28;100.00
61026;BME280;46911;32.650;-16.902;2024-01-16T08:04:51;100574.78;;;19.24;100.00
61026;BME280;46911;32.650;-16.902;2024-01-16T08:06:52;100586.81;;;19.30;100.00
61026;BME280;46911;32.650;-16.902;2024-01-16T08:08:56;100596.13;;;19.36;100.00
61026;BME280;46911;32.650;-16.902;2024-01-16T08:10:57;100592.75;;;19.34;100.00
61026;BME280;46911;32.650;-16.902;2024-01-16T08:12:58;100602.75;;;19.50;100.00
61026;BME280;46911;32.650;-16.902;2024-01-16T08:14:59;100605.81;;;19.55;100.00
61026;BME280;46911;32.650;-16.902;2024-01-16T08:16:59;100611.53;;;19.60;100.00
61026;BME280;46911;32.650;-16.902;2024-01-16T08:19:00;100598.88;;;19.61;100.00
61026;BME280;46911;32.650;-16.902;2024-01-16T08:21:01;100600.41;;;19.55;100.00
61026;BME280;46911;32.650;-16.902;2024-01-16T08:23:05;100586.19;;;19.61;100.00
61026;BME280;46911;32.650;-16.902;2024-01-16T08:25:09;100618.75;;;19.86;100.00
61026;BME280;46911;32.650;-16.902;2024-01-16T08:27:18;100614.16;;;19.86;100.00
61026;BME280;46911;32.650;-16.902;2024-01-16T08:29:21;100635.78;;;19.70;100.00
61026;BME280;46911;32.650;-16.902;2024-01-16T08:31:22;100625.41;;;19.57;100.00
61026;BME280;46911;32.650;-16.902;2024-01-16T08:33:23;100617.13;;;19.50;100.00
61026;BME280;46911;32.650;-16.902;2024-01-16T08:35:26;100616.13;;;19.51;100.00
61026;BME280;46911;32.650;-16.902;2024-01-16T08:37:30;100621.69;;;19.50;100.00
61026;BME280;46911;32.650;-16.902;2024-01-16T08:39:34;100620.53;;;19.61;100.00
61026;BME280;46911;32.650;-16.902;2024-01-16T08:41:34;100591.75;;;19.43;100.00
61026;BME280;46911;32.650;-16.902;2024-01-16T08:43:38;100620.34;;;19.54;100.00
61026;BME280;46911;32.650;-16.902;2024-01-16T08:45:41;100613.88;;;19.38;100.00
61026;BME280;46911;32.650;-16.902;2024-01-16T08:47:44;100628.63;;;19.52;100.00
61026;BME280;46911;32.650;-16.902;2024-01-16T08:49:48;100606.28;;;19.50;100.00
61026;BME280;46911;32.650;-16.902;2024-01-16T08:51:50;100597.69;;;19.55;100.00
61026;BME280;46911;32.650;-16.902;2024-01-16T08:53:51;100634.41;;;19.74;100.00
61026;BME280;46911;32.650;-16.902;2024-01-16T08:55:57;100625.31;;;19.75;100.00
61026;BME280;46911;32.650;-16.902;2024-01-16T08:57:58;100614.97;;;19.70;100.00
61026;BME280;46911;32.650;-16.902;2024-01-16T08:59:59;100626.53;;;19.89;100.00
61026;BME280;46911;32.650;-16.902;2024-01-16T09:01:59;100623.09;;;19.79;100.00
61026;BME280;46911;32.650;-16.902;2024-01-16T09:04:04;100634.97;;;19.86;100.00
61026;BME280;46911;32.650;-16.902;2024-01-16T09:06:05;100626.81;;;19.78;100.00
61026;BME280;46911;32.650;-16.902;2024-01-16T09:08:08;100641.22;;;19.86;100.00
61026;BME280;46911;32.650;-16.902;2024-01-16T09:10:10;100631.19;;;19.79;100.00
61026;BME280;46911;32.650;-16.902;2024-01-16T09:12:14;100641.75;;;19.90;100.00
61026;BME280;46911;32.650;-16.902;2024-01-16T09:14:15;100639.88;;;19.90;100.00
61026;BME280;46911;32.650;-16.902;2024-01-16T09:16:19;100633.63;;;19.98;100.00
61026;BME280;46911;32.650;-16.902;2024-01-16T09:18:20;100630.59;;;19.93;100.00
61026;BME280;46911;32.650;-16.902;2024-01-16T09:20:21;100640.75;;;19.99;100.00
61026;BME280;46911;32.650;-16.902;2024-01-16T09:22:22;100639.56;;;19.94;100.00
61026;BME280;46911;32.650;-16.902;2024-01-16T09:24:26;100628.56;;;19.87;100.00
61026;BME280;46911;32.650;-16.902;2024-01-16T09:26:29;100634.63;;;19.97;100.00
61026;BME280;46911;32.650;-16.902;2024-01-16T09:28:32;100641.75;;;19.82;100.00
61026;BME280;46911;32.650;-16.902;2024-01-16T09:30:35;100641.38;;;19.77;97.65
61026;BME280;46911;32.650;-16.902;2024-01-16T09:32:36;100634.63;;;19.89;95.98
61026;BME280;46911;32.650;-16.902;2024-01-16T09:34:37;100660.00;;;19.96;97.05
61026;BME280;46911;32.650;-16.902;2024-01-16T09:36:41;100656.47;;;19.96;96.03
61026;BME280;46911;32.650;-16.902;2024-01-16T09:38:42;100665.78;;;19.93;95.91
61026;BME280;46911;32.650;-16.902;2024-01-16T09:40:44;100665.78;;;19.93;95.63
61026;BME280;46911;32.650;-16.902;2024-01-16T09:42:46;100675.13;;;20.07;94.81
61026;BME280;46911;32.650;-16.902;2024-01-16T09:44:48;100644.63;;;20.05;94.06
61026;BME280;46911;32.650;-16.902;2024-01-16T09:46:53;100674.44;;;20.13;95.35
61026;BME280;46911;32.650;-16.902;2024-01-16T09:48:56;100660.56;;;20.16;95.18
61026;BME280;46911;32.650;-16.902;2024-01-16T09:51:00;100658.69;;;20.25;94.68
61026;BME280;46911;32.650;-16.902;2024-01-16T09:53:01;100659.16;;;20.53;93.42
61026;BME280;46911;32.650;-16.902;2024-01-16T09:55:02;100649.84;;;20.56;92.46
61026;BME280;46911;32.650;-16.902;2024-01-16T09:57:05;100678.28;;;20.68;91.94
61026;BME280;46911;32.650;-16.902;2024-01-16T09:59:08;100660.69;;;20.64;91.47
61026;BME280;46911;32.650;-16.902;2024-01-16T10:01:11;100670.50;;;20.90;90.47
61026;BME280;46911;32.650;-16.902;2024-01-16T10:03:15;100663.06;;;21.32;89.66
61026;BME280;46911;32.650;-16.902;2024-01-16T10:05:17;100665.34;;;21.51;86.48
61026;BME280;46911;32.650;-16.902;2024-01-16T10:07:18;100702.94;;;21.71;83.62
61026;BME280;46911;32.650;-16.902;2024-01-16T10:09:28;100702.09;;;21.70;84.12
61026;BME280;46911;32.650;-16.902;2024-01-16T10:11:32;100696.56;;;21.87;82.14
61026;BME280;46911;32.650;-16.902;2024-01-16T10:13:36;100700.78;;;22.13;79.95
61026;BME280;46911;32.650;-16.902;2024-01-16T10:15:39;100684.06;;;22.70;77.45
61026;BME280;46911;32.650;-16.902;2024-01-16T10:17:42;100707.44;;;22.95;77.17